sensor_id;sensor_type;location;lat;lon;timestamp;P1;durP1;ratioP1;P2;durP2;ratioP2
45476;SDS011;31958;51.756;-2.556;2023-04-08T00:01:36;6.07;;;1.88;;
45476;SDS011;31958;51.756;-2.556;2023-04-08T00:04:08;3.72;;;1.70;;
45476;SDS011;31958;51.756;-2.556;2023-04-08T00:06:33;3.90;;;1.70;;
45476;SDS011;31958;51.756;-2.556;2023-04-08T00:09:06;9.63;;;2.00;;
45476;SDS011;31958;51.756;-2.556;2023-04-08T00:11:46;2.38;;;1.30;;
45476;SDS011;31958;51.756;-2.556;2023-04-08T00:14:18;4.68;;;1.92;;
45476;SDS011;31958;51.756;-2.556;2023-04-08T00:16:50;3.53;;;1.73;;
45476;SDS011;31958;51.756;-2.556;2023-04-08T00:19:15;4.40;;;2.15;;
45476;SDS011;31958;51.756;-2.556;2023-04-08T00:21:47;3.70;;;1.60;;
45476;SDS011;31958;51.756;-2.556;2023-04-08T00:24:19;3.22;;;1.67;;
45476;SDS011;31958;51.756;-2.556;2023-04-08T00:26:44;4.70;;;2.20;;
45476;SDS011;31958;51.756;-2.556;2023-04-08T00:29:16;4.85;;;1.77;;
45476;SDS011;31958;51.756;-2.556;2023-04-08T00:31:48;7.03;;;1.60;;
45476;SDS011;31958;51.756;-2.556;2023-04-08T00:34:13;4.15;;;1.75;;
45476;SDS011;31958;51.756;-2.556;2023-04-08T00:36:45;9.18;;;1.85;;
45476;SDS011;31958;51.756;-2.556;2023-04-08T00:39:17;4.35;;;1.52;;
45476;SDS011;31958;51.756;-2.556;2023-04-08T00:41:42;4.28;;;2.20;;
45476;SDS011;31958;51.756;-2.556;2023-04-08T00:44:14;3.50;;;1.90;;
45476;SDS011;31958;51.756;-2.556;2023-04-08T00:46:46;2.83;;;1.52;;
45476;SDS011;31958;51.756;-2.556;2023-04-08T00:49:12;3.22;;;1.55;;
45476;SDS011;31958;51.756;-2.556;2023-04-08T00:51:44;6.88;;;2.03;;
45476;SDS011;31958;51.756;-2.556;2023-04-08T00:54:16;4.85;;;1.83;;
45476;SDS011;31958;51.756;-2.556;2023-04-08T00:56:42;9.38;;;1.65;;
45476;SDS011;31958;51.756;-2.556;2023-04-08T00:59:14;5.38;;;1.55;;
45476;SDS011;31958;51.756;-2.556;2023-04-08T01:04:32;15.02;;;1.85;;
45476;SDS011;31958;51.756;-2.556;2023-04-08T01:07:16;5.22;;;1.75;;
45476;SDS011;31958;51.756;-2.556;2023-04-08T01:09:52;6.95;;;1.98;;
45476;SDS011;31958;51.756;-2.556;2023-04-08T01:12:28;2.92;;;1.70;;
45476;SDS011;31958;51.756;-2.556;2023-04-08T01:15:04;3.50;;;1.77;;
45476;SDS011;31958;51.756;-2.556;2023-04-08T01:17:37;4.97;;;1.50;;
45476;SDS011;31958;51.756;-2.556;2023-04-08T01:20:11;5.25;;;1.80;;
45476;SDS011;31958;51.756;-2.556;2023-04-08T01:25:32;3.85;;;1.75;;
45476;SDS011;31958;51.756;-2.556;2023-04-08T01:28:12;3.00;;;1.60;;
45476;SDS011;31958;51.756;-2.556;2023-04-08T01:30:46;4.22;;;2.03;;
45476;SDS011;31958;51.756;-2.556;2023-04-08T01:33:18;7.57;;;1.58;;
45476;SDS011;31958;51.756;-2.556;2023-04-08T01:35:44;2.97;;;1.45;;
45476;SDS011;31958;51.756;-2.556;2023-04-08T01:38:17;2.70;;;1.55;;
45476;SDS011;31958;51.756;-2.556;2023-04-08T01:40:53;2.63;;;1.50;;
45476;SDS011;31958;51.756;-2.556;2023-04-08T01:43:26;4.75;;;1.73;;
45476;SDS011;31958;51.756;-2.556;2023-04-08T01:45:59;3.17;;;1.88;;
45476;SDS011;31958;51.756;-2.556;2023-04-08T01:48:25;8.18;;;1.83;;
45476;SDS011;31958;51.756;-2.556;2023-04-08T01:50:57;3.38;;;1.58;;
45476;SDS011;31958;51.756;-2.556;2023-04-08T01:53:30;4.40;;;2.05;;
45476;SDS011;31958;51.756;-2.556;2023-04-08T01:55:57;2.95;;;1.23;;
45476;SDS011;31958;51.756;-2.556;2023-04-08T01:58:39;2.55;;;1.48;;
45476;SDS011;31958;51.756;-2.556;2023-04-08T02:01:15;4.22;;;1.48;;
45476;SDS011;31958;51.756;-2.556;2023-04-08T02:03:48;5.68;;;1.90;;
45476;SDS011;31958;51.756;-2.556;2023-04-08T02:06:22;8.27;;;1.58;;
45476;SDS011;31958;51.756;-2.556;2023-04-08T02:08:48;3.25;;;1.60;;
45476;SDS011;31958;51.756;-2.556;2023-04-08T02:11:20;3.80;;;1.73;;
45476;SDS011;31958;51.756;-2.556;2023-04-08T02:13:52;4.95;;;1.60;;
45476;SDS011;31958;51.756;-2.556;2023-04-08T02:19:23;6.90;;;1.38;;
45476;SDS011;31958;51.756;-2.556;2023-04-08T02:21:51;3.67;;;1.42;;
45476;SDS011;31958;51.756;-2.556;2023-04-08T02:24:37;2.80;;;1.80;;
45476;SDS011;31958;51.756;-2.556;2023-04-08T02:27:02;4.80;;;1.50;;
45476;SDS011;31958;51.756;-2.556;2023-04-08T02:29:29;4.60;;;2.17;;
45476;SDS011;31958;51.756;-2.556;2023-04-08T02:34:34;2.08;;;1.23;;
45476;SDS011;31958;51.756;-2.556;2023-04-08T02:37:00;3.42;;;1.50;;
45476;SDS011;31958;51.756;-2.556;2023-04-08T02:39:39;2.10;;;1.25;;
45476;SDS011;31958;51.756;-2.556;2023-04-08T02:42:04;1.92;;;1.17;;
45476;SDS011;31958;51.756;-2.556;2023-04-08T02:44:30;4.05;;;1.95;;
45476;SDS011;31958;51.756;-2.556;2023-04-08T02:47:09;4.63;;;1.40;;
45476;SDS011;31958;51.756;-2.556;2023-04-08T02:49:34;6.32;;;1.95;;
45476;SDS011;31958;51.756;-2.556;2023-04-08T02:51:59;6.18;;;2.30;;
45476;SDS011;31958;51.756;-2.556;2023-04-08T02:54:38;2.20;;;1.20;;
45476;SDS011;31958;51.756;-2.556;2023-04-08T02:57:03;6.32;;;1.48;;
45476;SDS011;31958;51.756;-2.556;2023-04-08T02:59:28;2.00;;;1.30;;
45476;SDS011;31958;51.756;-2.556;2023-04-08T03:02:08;2.63;;;1.38;;
45476;SDS011;31958;51.756;-2.556;2023-04-08T03:04:33;2.03;;;1.13;;
45476;SDS011;31958;51.756;-2.556;2023-04-08T03:06:58;6.32;;;1.50;;
45476;SDS011;31958;51.756;-2.556;2023-04-08T03:09:37;8.38;;;1.70;;
45476;SDS011;31958;51.756;-2.556;2023-04-08T03:12:02;2.53;;;1.08;;
45476;SDS011;31958;51.756;-2.556;2023-04-08T03:14:28;5.88;;;1.70;;
45476;SDS011;31958;51.756;-2.556;2023-04-08T03:17:06;2.30;;;1.38;;
45476;SDS011;31958;51.756;-2.556;2023-04-08T03:19:31;3.08;;;1.92;;
45476;SDS011;31958;51.756;-2.556;2023-04-08T03:21:56;7.68;;;1.88;;
45476;SDS011;31958;51.756;-2.556;2023-04-08T03:24:35;3.13;;;1.65;;
45476;SDS011;31958;51.756;-2.556;2023-04-08T03:27:01;2.25;;;1.08;;
45476;SDS011;31958;51.756;-2.556;2023-04-08T03:29:26;2.30;;;1.05;;
45476;SDS011;31958;51.756;-2.556;2023-04-08T03:32:05;6.63;;;1.73;;
45476;SDS011;31958;51.756;-2.556;2023-04-08T03:34:30;4.68;;;1.33;;
45476;SDS011;31958;51.756;-2.556;2023-04-08T03:36:55;3.55;;;1.38;;
45476;SDS011;31958;51.756;-2.556;2023-04-08T03:39:34;2.63;;;1.58;;
45476;SDS011;31958;51.756;-2.556;2023-04-08T03:41:59;4.53;;;1.60;;
45476;SDS011;31958;51.756;-2.556;2023-04-08T03:44:25;3.25;;;1.50;;
45476;SDS011;31958;51.756;-2.556;2023-04-08T03:47:04;3.15;;;1.48;;
45476;SDS011;31958;51.756;-2.556;2023-04-08T03:49:29;7.68;;;1.75;;
45476;SDS011;31958;51.756;-2.556;2023-04-08T03:51:54;3.00;;;1.30;;
45476;SDS011;31958;51.756;-2.556;2023-04-08T03:54:33;5.70;;;1.75;;
45476;SDS011;31958;51.756;-2.556;2023-04-08T03:56:58;2.55;;;1.08;;
45476;SDS011;31958;51.756;-2.556;2023-04-08T03:59:23;2.70;;;1.58;;
45476;SDS011;31958;51.756;-2.556;2023-04-08T04:02:02;2.17;;;1.02;;
45476;SDS011;31958;51.756;-2.556;2023-04-08T04:04:27;2.75;;;1.30;;
45476;SDS011;31958;51.756;-2.556;2023-04-08T04:06:52;4.47;;;1.27;;
45476;SDS011;31958;51.756;-2.556;2023-04-08T04:09:31;2.70;;;1.25;;
45476;SDS011;31958;51.756;-2.556;2023-04-08T04:11:56;6.00;;;1.20;;
45476;SDS011;31958;51.756;-2.556;2023-04-08T04:14:21;1.98;;;1.00;;
45476;SDS011;31958;51.756;-2.556;2023-04-08T04:17:00;6.35;;;1.35;;
45476;SDS011;31958;51.756;-2.556;2023-04-08T04:19:28;2.42;;;1.27;;
45476;SDS011;31958;51.756;-2.556;2023-04-08T04:22:08;4.38;;;1.73;;
45476;SDS011;31958;51.756;-2.556;2023-04-08T04:24:34;2.15;;;1.20;;
45476;SDS011;31958;51.756;-2.556;2023-04-08T04:26:59;2.47;;;1.30;;
45476;SDS011;31958;51.756;-2.556;2023-04-08T04:29:38;1.60;;;1.00;;
45476;SDS011;31958;51.756;-2.556;2023-04-08T04:32:03;6.45;;;1.30;;
45476;SDS011;31958;51.756;-2.556;2023-04-08T04:34:29;2.25;;;0.93;;
45476;SDS011;31958;51.756;-2.556;2023-04-08T04:37:08;2.17;;;1.23;;
45476;SDS011;31958;51.756;-2.556;2023-04-08T04:39:33;5.53;;;1.33;;
45476;SDS011;31958;51.756;-2.556;2023-04-08T04:41:58;4.35;;;0.98;;
45476;SDS011;31958;51.756;-2.556;2023-04-08T04:44:37;1.83;;;1.00;;
45476;SDS011;31958;51.756;-2.556;2023-04-08T04:47:02;1.65;;;0.88;;
45476;SDS011;31958;51.756;-2.556;2023-04-08T04:49:27;6.47;;;1.20;;
45476;SDS011;31958;51.756;-2.556;2023-04-08T04:52:06;1.88;;;0.88;;
45476;SDS011;31958;51.756;-2.556;2023-04-08T04:54:31;1.38;;;0.88;;
45476;SDS011;31958;51.756;-2.556;2023-04-08T04:56:56;2.00;;;1.13;;
45476;SDS011;31958;51.756;-2.556;2023-04-08T04:59:35;2.58;;;1.08;;
45476;SDS011;31958;51.756;-2.556;2023-04-08T05:02:00;5.60;;;1.55;;
45476;SDS011;31958;51.756;-2.556;2023-04-08T05:04:26;2.13;;;1.10;;
45476;SDS011;31958;51.756;-2.556;2023-04-08T05:07:04;7.28;;;1.05;;
45476;SDS011;31958;51.756;-2.556;2023-04-08T05:09:29;6.57;;;0.68;;
45476;SDS011;31958;51.756;-2.556;2023-04-08T05:11:55;4.78;;;0.90;;
45476;SDS011;31958;51.756;-2.556;2023-04-08T05:14:34;1.08;;;0.75;;
45476;SDS011;31958;51.756;-2.556;2023-04-08T05:16:59;1.88;;;1.00;;
45476;SDS011;31958;51.756;-2.556;2023-04-08T05:19:25;5.70;;;1.50;;
45476;SDS011;31958;51.756;-2.556;2023-04-08T05:22:04;2.03;;;1.20;;
45476;SDS011;31958;51.756;-2.556;2023-04-08T05:24:29;4.05;;;1.20;;
45476;SDS011;31958;51.756;-2.556;2023-04-08T05:26:54;1.55;;;0.90;;
45476;SDS011;31958;51.756;-2.556;2023-04-08T05:29:33;1.63;;;0.88;;
45476;SDS011;31958;51.756;-2.556;2023-04-08T05:31:58;1.60;;;1.10;;
45476;SDS011;31958;51.756;-2.556;2023-04-08T05:34:23;1.67;;;0.95;;
45476;SDS011;31958;51.756;-2.556;2023-04-08T05:37:02;2.13;;;1.13;;
45476;SDS011;31958;51.756;-2.556;2023-04-08T05:39:27;1.42;;;0.93;;
45476;SDS011;31958;51.756;-2.556;2023-04-08T05:41:52;2.28;;;1.10;;
45476;SDS011;31958;51.756;-2.556;2023-04-08T05:44:31;2.63;;;1.17;;
45476;SDS011;31958;51.756;-2.556;2023-04-08T05:46:56;2.47;;;1.05;;
45476;SDS011;31958;51.756;-2.556;2023-04-08T05:49:22;5.65;;;0.90;;
45476;SDS011;31958;51.756;-2.556;2023-04-08T05:52:01;2.10;;;1.00;;
45476;SDS011;31958;51.756;-2.556;2023-04-08T05:54:27;2.55;;;1.30;;
45476;SDS011;31958;51.756;-2.556;2023-04-08T05:56:53;2.90;;;1.42;;
45476;SDS011;31958;51.756;-2.556;2023-04-08T05:59:32;4.95;;;1.42;;
45476;SDS011;31958;51.756;-2.556;2023-04-08T06:01:57;3.03;;;1.20;;
45476;SDS011;31958;51.756;-2.556;2023-04-08T06:04:22;5.50;;;1.30;;
45476;SDS011;31958;51.756;-2.556;2023-04-08T06:07:01;8.70;;;1.25;;
45476;SDS011;31958;51.756;-2.556;2023-04-08T06:09:27;2.40;;;1.02;;
45476;SDS011;31958;51.756;-2.556;2023-04-08T06:11:53;2.30;;;1.10;;
45476;SDS011;31958;51.756;-2.556;2023-04-08T06:14:32;3.17;;;1.35;;
45476;SDS011;31958;51.756;-2.556;2023-04-08T06:16:57;6.72;;;1.40;;
45476;SDS011;31958;51.756;-2.556;2023-04-08T06:19:22;5.80;;;1.10;;
45476;SDS011;31958;51.756;-2.556;2023-04-08T06:22:01;2.47;;;1.10;;
45476;SDS011;31958;51.756;-2.556;2023-04-08T06:24:26;3.70;;;1.48;;
45476;SDS011;31958;51.756;-2.556;2023-04-08T06:26:53;262.27;;;14.25;;
45476;SDS011;31958;51.756;-2.556;2023-04-08T06:29:32;310.40;;;15.82;;
45476;SDS011;31958;51.756;-2.556;2023-04-08T06:31:57;298.25;;;15.55;;
45476;SDS011;31958;51.756;-2.556;2023-04-08T06:34:23;1999.90;;;116.05;;
45476;SDS011;31958;51.756;-2.556;2023-04-08T06:37:02;1999.90;;;118.80;;
45476;SDS011;31958;51.756;-2.556;2023-04-08T06:39:27;1615.72;;;74.80;;
45476;SDS011;31958;51.756;-2.556;2023-04-08T06:41:53;731.78;;;32.63;;
45476;SDS011;31958;51.756;-2.556;2023-04-08T06:44:32;837.53;;;37.90;;
45476;SDS011;31958;51.756;-2.556;2023-04-08T06:46:57;23.60;;;1.95;;
45476;SDS011;31958;51.756;-2.556;2023-04-08T06:49:22;68.75;;;3.83;;
45476;SDS011;31958;51.756;-2.556;2023-04-08T06:52:01;4.47;;;1.05;;
45476;SDS011;31958;51.756;-2.556;2023-04-08T06:54:26;2.13;;;1.02;;
45476;SDS011;31958;51.756;-2.556;2023-04-08T06:56:52;4.20;;;1.17;;
45476;SDS011;31958;51.756;-2.556;2023-04-08T06:59:30;3.28;;;1.00;;
45476;SDS011;31958;51.756;-2.556;2023-04-08T07:01:55;2.00;;;1.00;;
45476;SDS011;31958;51.756;-2.556;2023-04-08T07:04:21;2.33;;;1.05;;
45476;SDS011;31958;51.756;-2.556;2023-04-08T07:06:59;2.58;;;1.08;;
45476;SDS011;31958;51.756;-2.556;2023-04-08T07:09:24;4.10;;;1.13;;
45476;SDS011;31958;51.756;-2.556;2023-04-08T07:11:49;4.80;;;1.30;;
45476;SDS011;31958;51.756;-2.556;2023-04-08T07:14:29;2.17;;;0.93;;
45476;SDS011;31958;51.756;-2.556;2023-04-08T07:16:54;2.80;;;1.23;;
45476;SDS011;31958;51.756;-2.556;2023-04-08T07:19:20;3.55;;;1.20;;
45476;SDS011;31958;51.756;-2.556;2023-04-08T07:21:59;1.98;;;0.98;;
45476;SDS011;31958;51.756;-2.556;2023-04-08T07:24:24;2.05;;;1.10;;
45476;SDS011;31958;51.756;-2.556;2023-04-08T07:26:50;1.98;;;0.98;;
45476;SDS011;31958;51.756;-2.556;2023-04-08T07:29:29;2.60;;;1.05;;
45476;SDS011;31958;51.756;-2.556;2023-04-08T07:31:55;3.30;;;1.38;;
45476;SDS011;31958;51.756;-2.556;2023-04-08T07:34:20;4.50;;;1.33;;
45476;SDS011;31958;51.756;-2.556;2023-04-08T07:36:59;3.15;;;1.20;;
45476;SDS011;31958;51.756;-2.556;2023-04-08T07:39:24;2.83;;;1.50;;
45476;SDS011;31958;51.756;-2.556;2023-04-08T07:41:50;4.22;;;1.13;;
45476;SDS011;31958;51.756;-2.556;2023-04-08T07:44:29;3.33;;;1.30;;
45476;SDS011;31958;51.756;-2.556;2023-04-08T07:46:54;4.80;;;1.60;;
45476;SDS011;31958;51.756;-2.556;2023-04-08T07:49:20;6.50;;;1.65;;
45476;SDS011;31958;51.756;-2.556;2023-04-08T07:51:59;2.67;;;1.40;;
45476;SDS011;31958;51.756;-2.556;2023-04-08T07:54:24;5.28;;;1.60;;
45476;SDS011;31958;51.756;-2.556;2023-04-08T07:56:50;2.65;;;1.30;;
45476;SDS011;31958;51.756;-2.556;2023-04-08T07:59:30;3.60;;;1.50;;
45476;SDS011;31958;51.756;-2.556;2023-04-08T08:01:56;5.78;;;2.00;;
45476;SDS011;31958;51.756;-2.556;2023-04-08T08:04:21;5.43;;;1.75;;
45476;SDS011;31958;51.756;-2.556;2023-04-08T08:07:00;3.88;;;1.63;;
45476;SDS011;31958;51.756;-2.556;2023-04-08T08:09:25;11.05;;;2.08;;
45476;SDS011;31958;51.756;-2.556;2023-04-08T08:11:50;5.05;;;1.85;;
45476;SDS011;31958;51.756;-2.556;2023-04-08T08:14:29;7.07;;;1.92;;
45476;SDS011;31958;51.756;-2.556;2023-04-08T08:16:54;6.07;;;1.85;;
45476;SDS011;31958;51.756;-2.556;2023-04-08T08:19:20;6.93;;;1.80;;
45476;SDS011;31958;51.756;-2.556;2023-04-08T08:21:59;12.93;;;2.38;;
45476;SDS011;31958;51.756;-2.556;2023-04-08T08:24:24;7.22;;;2.20;;
45476;SDS011;31958;51.756;-2.556;2023-04-08T08:26:50;5.32;;;2.20;;
45476;SDS011;31958;51.756;-2.556;2023-04-08T08:29:29;4.45;;;1.95;;
45476;SDS011;31958;51.756;-2.556;2023-04-08T08:31:54;5.70;;;2.25;;
45476;SDS011;31958;51.756;-2.556;2023-04-08T08:34:20;6.50;;;2.63;;
45476;SDS011;31958;51.756;-2.556;2023-04-08T08:36:58;5.78;;;2.60;;
45476;SDS011;31958;51.756;-2.556;2023-04-08T08:39:23;3.97;;;1.88;;
45476;SDS011;31958;51.756;-2.556;2023-04-08T08:41:48;3.50;;;2.10;;
45476;SDS011;31958;51.756;-2.556;2023-04-08T08:44:28;7.55;;;2.40;;
45476;SDS011;31958;51.756;-2.556;2023-04-08T08:46:54;4.47;;;2.10;;
45476;SDS011;31958;51.756;-2.556;2023-04-08T08:49:20;4.75;;;2.42;;
45476;SDS011;31958;51.756;-2.556;2023-04-08T08:51:58;4.82;;;2.10;;
45476;SDS011;31958;51.756;-2.556;2023-04-08T08:56:50;7.15;;;2.13;;
45476;SDS011;31958;51.756;-2.556;2023-04-08T08:59:29;4.43;;;1.85;;
45476;SDS011;31958;51.756;-2.556;2023-04-08T09:01:55;3.45;;;1.60;;
45476;SDS011;31958;51.756;-2.556;2023-04-08T09:04:20;3.38;;;1.70;;
45476;SDS011;31958;51.756;-2.556;2023-04-08T09:07:09;3.07;;;1.53;;
45476;SDS011;31958;51.756;-2.556;2023-04-08T09:09:50;5.65;;;1.50;;
45476;SDS011;31958;51.756;-2.556;2023-04-08T09:12:30;4.15;;;1.50;;
45476;SDS011;31958;51.756;-2.556;2023-04-08T09:15:05;4.38;;;1.40;;
45476;SDS011;31958;51.756;-2.556;2023-04-08T09:17:46;5.13;;;2.13;;
45476;SDS011;31958;51.756;-2.556;2023-04-08T09:20:11;3.97;;;1.13;;
45476;SDS011;31958;51.756;-2.556;2023-04-08T09:22:58;4.30;;;1.27;;
45476;SDS011;31958;51.756;-2.556;2023-04-08T09:25:37;3.67;;;1.58;;
45476;SDS011;31958;51.756;-2.556;2023-04-08T09:28:02;3.40;;;1.70;;
45476;SDS011;31958;51.756;-2.556;2023-04-08T09:30:34;4.13;;;1.50;;
45476;SDS011;31958;51.756;-2.556;2023-04-08T09:33:06;4.07;;;1.65;;
45476;SDS011;31958;51.756;-2.556;2023-04-08T09:35:32;3.67;;;1.48;;
45476;SDS011;31958;51.756;-2.556;2023-04-08T09:38:04;6.35;;;1.55;;
45476;SDS011;31958;51.756;-2.556;2023-04-08T09:40:36;3.88;;;1.60;;
45476;SDS011;31958;51.756;-2.556;2023-04-08T09:43:03;4.03;;;1.70;;
45476;SDS011;31958;51.756;-2.556;2023-04-08T09:45:36;3.88;;;1.60;;
45476;SDS011;31958;51.756;-2.556;2023-04-08T09:48:11;7.32;;;1.60;;
45476;SDS011;31958;51.756;-2.556;2023-04-08T09:50:46;4.03;;;1.42;;
45476;SDS011;31958;51.756;-2.556;2023-04-08T09:53:25;3.97;;;1.70;;
45476;SDS011;31958;51.756;-2.556;2023-04-08T09:56:07;3.92;;;1.50;;
45476;SDS011;31958;51.756;-2.556;2023-04-08T09:58:47;3.35;;;1.80;;
45476;SDS011;31958;51.756;-2.556;2023-04-08T10:01:25;3.80;;;1.42;;
45476;SDS011;31958;51.756;-2.556;2023-04-08T10:03:59;4.95;;;1.67;;
45476;SDS011;31958;51.756;-2.556;2023-04-08T10:06:31;3.00;;;1.40;;
45476;SDS011;31958;51.756;-2.556;2023-04-08T10:08:57;4.93;;;1.65;;
45476;SDS011;31958;51.756;-2.556;2023-04-08T10:11:38;3.80;;;1.55;;
45476;SDS011;31958;51.756;-2.556;2023-04-08T10:14:03;5.72;;;1.80;;
45476;SDS011;31958;51.756;-2.556;2023-04-08T10:16:29;3.42;;;1.50;;
45476;SDS011;31958;51.756;-2.556;2023-04-08T10:19:54;5.85;;;1.90;;
45476;SDS011;31958;51.756;-2.556;2023-04-08T10:27:41;3.80;;;1.55;;
45476;SDS011;31958;51.756;-2.556;2023-04-08T10:32:52;3.03;;;1.60;;
45476;SDS011;31958;51.756;-2.556;2023-04-08T10:35:34;3.50;;;1.58;;
45476;SDS011;31958;51.756;-2.556;2023-04-08T10:40:26;3.22;;;1.60;;
45476;SDS011;31958;51.756;-2.556;2023-04-08T10:43:05;5.43;;;1.60;;
45476;SDS011;31958;51.756;-2.556;2023-04-08T10:45:31;3.78;;;1.48;;
45476;SDS011;31958;51.756;-2.556;2023-04-08T10:47:56;3.72;;;1.52;;
45476;SDS011;31958;51.756;-2.556;2023-04-08T10:50:35;4.82;;;1.70;;
45476;SDS011;31958;51.756;-2.556;2023-04-08T10:53:00;3.78;;;1.80;;
45476;SDS011;31958;51.756;-2.556;2023-04-08T10:55:27;6.82;;;2.03;;
45476;SDS011;31958;51.756;-2.556;2023-04-08T10:58:06;4.50;;;1.67;;
45476;SDS011;31958;51.756;-2.556;2023-04-08T11:00:33;7.05;;;2.17;;
45476;SDS011;31958;51.756;-2.556;2023-04-08T11:03:14;5.60;;;1.70;;
45476;SDS011;31958;51.756;-2.556;2023-04-08T11:05:39;8.93;;;1.67;;
45476;SDS011;31958;51.756;-2.556;2023-04-08T11:08:05;3.20;;;1.45;;
45476;SDS011;31958;51.756;-2.556;2023-04-08T11:10:44;4.95;;;1.65;;
45476;SDS011;31958;51.756;-2.556;2023-04-08T11:13:09;4.57;;;1.67;;
45476;SDS011;31958;51.756;-2.556;2023-04-08T11:15:36;5.07;;;2.03;;
45476;SDS011;31958;51.756;-2.556;2023-04-08T11:18:16;5.90;;;1.63;;
45476;SDS011;31958;51.756;-2.556;2023-04-08T11:20:42;4.20;;;1.50;;
45476;SDS011;31958;51.756;-2.556;2023-04-08T11:23:15;4.03;;;1.70;;
45476;SDS011;31958;51.756;-2.556;2023-04-08T11:25:54;5.20;;;1.70;;
45476;SDS011;31958;51.756;-2.556;2023-04-08T11:28:20;3.85;;;1.60;;
45476;SDS011;31958;51.756;-2.556;2023-04-08T11:30:46;4.15;;;1.60;;
45476;SDS011;31958;51.756;-2.556;2023-04-08T11:33:25;5.43;;;1.80;;
45476;SDS011;31958;51.756;-2.556;2023-04-08T11:35:53;7.60;;;2.15;;
45476;SDS011;31958;51.756;-2.556;2023-04-08T11:38:32;4.20;;;1.73;;
45476;SDS011;31958;51.756;-2.556;2023-04-08T11:40:58;7.05;;;2.25;;
45476;SDS011;31958;51.756;-2.556;2023-04-08T11:43:24;3.15;;;1.58;;
45476;SDS011;31958;51.756;-2.556;2023-04-08T11:46:09;5.00;;;1.77;;
45476;SDS011;31958;51.756;-2.556;2023-04-08T11:48:35;5.47;;;2.00;;
45476;SDS011;31958;51.756;-2.556;2023-04-08T11:51:14;5.03;;;2.15;;
45476;SDS011;31958;51.756;-2.556;2023-04-08T11:53:40;3.40;;;1.73;;
45476;SDS011;31958;51.756;-2.556;2023-04-08T11:56:14;5.30;;;2.00;;
45476;SDS011;31958;51.756;-2.556;2023-04-08T11:58:54;7.10;;;2.15;;
45476;SDS011;31958;51.756;-2.556;2023-04-08T12:01:20;7.13;;;1.77;;
45476;SDS011;31958;51.756;-2.556;2023-04-08T12:03:55;3.22;;;1.88;;
45476;SDS011;31958;51.756;-2.556;2023-04-08T12:09:02;4.47;;;1.77;;
45476;SDS011;31958;51.756;-2.556;2023-04-08T12:11:28;6.15;;;1.80;;
45476;SDS011;31958;51.756;-2.556;2023-04-08T12:13:59;5.57;;;1.98;;
45476;SDS011;31958;51.756;-2.556;2023-04-08T12:16:31;6.22;;;1.88;;
45476;SDS011;31958;51.756;-2.556;2023-04-08T12:18:56;8.38;;;2.20;;
45476;SDS011;31958;51.756;-2.556;2023-04-08T12:21:28;4.50;;;1.75;;
45476;SDS011;31958;51.756;-2.556;2023-04-08T12:24:00;2.88;;;1.50;;
45476;SDS011;31958;51.756;-2.556;2023-04-08T12:26:25;3.97;;;1.70;;
45476;SDS011;31958;51.756;-2.556;2023-04-08T12:28:57;7.20;;;2.25;;
45476;SDS011;31958;51.756;-2.556;2023-04-08T12:31:29;8.02;;;1.75;;
45476;SDS011;31958;51.756;-2.556;2023-04-08T12:33:54;3.13;;;1.90;;
45476;SDS011;31958;51.756;-2.556;2023-04-08T12:36:26;5.43;;;1.98;;
45476;SDS011;31958;51.756;-2.556;2023-04-08T12:38:58;4.05;;;1.63;;
45476;SDS011;31958;51.756;-2.556;2023-04-08T12:41:23;3.33;;;1.70;;
45476;SDS011;31958;51.756;-2.556;2023-04-08T12:43:55;6.22;;;2.30;;
45476;SDS011;31958;51.756;-2.556;2023-04-08T12:46:27;6.07;;;2.25;;
45476;SDS011;31958;51.756;-2.556;2023-04-08T12:48:52;6.80;;;2.38;;
45476;SDS011;31958;51.756;-2.556;2023-04-08T12:51:24;5.15;;;2.03;;
45476;SDS011;31958;51.756;-2.556;2023-04-08T12:53:56;4.55;;;1.95;;
45476;SDS011;31958;51.756;-2.556;2023-04-08T12:56:21;5.15;;;1.83;;
45476;SDS011;31958;51.756;-2.556;2023-04-08T12:58:53;6.47;;;2.10;;
45476;SDS011;31958;51.756;-2.556;2023-04-08T13:01:26;4.47;;;2.05;;
45476;SDS011;31958;51.756;-2.556;2023-04-08T13:03:51;5.10;;;2.13;;
45476;SDS011;31958;51.756;-2.556;2023-04-08T13:06:23;3.70;;;2.03;;
45476;SDS011;31958;51.756;-2.556;2023-04-08T13:08:56;5.32;;;2.17;;
45476;SDS011;31958;51.756;-2.556;2023-04-08T13:11:21;7.43;;;2.80;;
45476;SDS011;31958;51.756;-2.556;2023-04-08T13:13:53;6.20;;;2.42;;
45476;SDS011;31958;51.756;-2.556;2023-04-08T13:16:25;3.97;;;2.13;;
45476;SDS011;31958;51.756;-2.556;2023-04-08T13:18:51;5.97;;;2.45;;
45476;SDS011;31958;51.756;-2.556;2023-04-08T13:21:22;4.00;;;1.80;;
45476;SDS011;31958;51.756;-2.556;2023-04-08T13:23:54;7.85;;;2.10;;
45476;SDS011;31958;51.756;-2.556;2023-04-08T13:26:19;5.63;;;2.20;;
45476;SDS011;31958;51.756;-2.556;2023-04-08T13:28:51;3.65;;;2.00;;
45476;SDS011;31958;51.756;-2.556;2023-04-08T13:31:23;5.32;;;2.08;;
45476;SDS011;31958;51.756;-2.556;2023-04-08T13:33:49;7.60;;;2.45;;
45476;SDS011;31958;51.756;-2.556;2023-04-08T13:36:21;4.93;;;2.40;;
45476;SDS011;31958;51.756;-2.556;2023-04-08T13:38:53;4.63;;;2.28;;
45476;SDS011;31958;51.756;-2.556;2023-04-08T13:41:19;5.47;;;2.20;;
45476;SDS011;31958;51.756;-2.556;2023-04-08T13:43:52;5.85;;;2.17;;
45476;SDS011;31958;51.756;-2.556;2023-04-08T13:46:24;6.25;;;2.05;;
45476;SDS011;31958;51.756;-2.556;2023-04-08T13:48:49;4.43;;;1.95;;
45476;SDS011;31958;51.756;-2.556;2023-04-08T13:51:21;6.78;;;1.90;;
45476;SDS011;31958;51.756;-2.556;2023-04-08T13:53:53;6.15;;;2.08;;
45476;SDS011;31958;51.756;-2.556;2023-04-08T13:56:18;6.68;;;2.13;;
45476;SDS011;31958;51.756;-2.556;2023-04-08T13:58:50;6.45;;;1.98;;
45476;SDS011;31958;51.756;-2.556;2023-04-08T14:01:22;4.30;;;2.30;;
45476;SDS011;31958;51.756;-2.556;2023-04-08T14:03:47;3.35;;;1.95;;
45476;SDS011;31958;51.756;-2.556;2023-04-08T14:06:19;5.38;;;2.00;;
45476;SDS011;31958;51.756;-2.556;2023-04-08T14:08:51;5.93;;;2.55;;
45476;SDS011;31958;51.756;-2.556;2023-04-08T14:11:16;3.95;;;2.50;;
45476;SDS011;31958;51.756;-2.556;2023-04-08T14:13:48;7.18;;;2.40;;
45476;SDS011;31958;51.756;-2.556;2023-04-08T14:16:20;4.90;;;2.22;;
45476;SDS011;31958;51.756;-2.556;2023-04-08T14:18:45;5.30;;;2.30;;
45476;SDS011;31958;51.756;-2.556;2023-04-08T14:21:17;7.03;;;2.88;;
45476;SDS011;31958;51.756;-2.556;2023-04-08T14:23:49;8.48;;;3.47;;
45476;SDS011;31958;51.756;-2.556;2023-04-08T14:26:14;6.90;;;3.15;;
45476;SDS011;31958;51.756;-2.556;2023-04-08T14:28:46;4.82;;;2.90;;
45476;SDS011;31958;51.756;-2.556;2023-04-08T14:31:18;4.88;;;2.38;;
45476;SDS011;31958;51.756;-2.556;2023-04-08T14:33:43;4.78;;;2.65;;
45476;SDS011;31958;51.756;-2.556;2023-04-08T14:36:15;7.90;;;2.67;;
45476;SDS011;31958;51.756;-2.556;2023-04-08T14:38:47;7.80;;;2.65;;
45476;SDS011;31958;51.756;-2.556;2023-04-08T14:41:12;5.43;;;2.70;;
45476;SDS011;31958;51.756;-2.556;2023-04-08T14:43:45;6.15;;;2.30;;
45476;SDS011;31958;51.756;-2.556;2023-04-08T14:46:17;4.13;;;2.40;;
45476;SDS011;31958;51.756;-2.556;2023-04-08T14:48:43;4.53;;;1.98;;
45476;SDS011;31958;51.756;-2.556;2023-04-08T14:51:15;4.90;;;2.15;;
45476;SDS011;31958;51.756;-2.556;2023-04-08T14:53:47;5.28;;;2.55;;
45476;SDS011;31958;51.756;-2.556;2023-04-08T14:56:12;5.38;;;2.40;;
45476;SDS011;31958;51.756;-2.556;2023-04-08T14:58:44;6.03;;;2.45;;
45476;SDS011;31958;51.756;-2.556;2023-04-08T15:01:16;7.07;;;2.33;;
45476;SDS011;31958;51.756;-2.556;2023-04-08T15:03:41;4.68;;;2.17;;
45476;SDS011;31958;51.756;-2.556;2023-04-08T15:06:13;5.28;;;2.20;;
45476;SDS011;31958;51.756;-2.556;2023-04-08T15:08:48;6.53;;;2.25;;
45476;SDS011;31958;51.756;-2.556;2023-04-08T15:11:20;4.68;;;1.90;;
45476;SDS011;31958;51.756;-2.556;2023-04-08T15:13:46;3.97;;;1.95;;
45476;SDS011;31958;51.756;-2.556;2023-04-08T15:16:18;4.13;;;2.03;;
45476;SDS011;31958;51.756;-2.556;2023-04-08T15:18:50;6.63;;;2.10;;
45476;SDS011;31958;51.756;-2.556;2023-04-08T15:21:15;3.97;;;1.92;;